Portada
METAR-TAF:

METAR-TAF

Aeroports :

Harrison, Arkansas, Estats Units d'Amèrica

latitud: 36-15-42N, longitud: 093-09-17W, altitud: 416 m

Observació

L'informe es va fer fa 29 minuts, a les 12:53 UTC
Vent calma
Temperatura 17°C
Humitat 68%
Pressió 1024 hPa
Visibilitat: 16.1 km
Cel clar

METAR: KHRO 301253Z AUTO 00000KT 10SM CLR 17/11 A3024 RMK AO2 SLP230 T01670106

Hora: 08:22 (13:22 UTC)

Pronòstic

L'informe es va fer fa 2 hores i 2 minuts, a les 11:20 UTC
Pronòstic vàlid del 30 a les 12 UTC al 31 a les 12 UTC
Vent 6 kt amb direcció variable
Visibilitat: 10 km
Cel clar

TAF: KHRO 301120Z 3012/3112 VRB06KT P6SM SKC

Observacions i pronòstics meteorològics de més de 4000 aeroports (METAR i TAF).

Les estacions disponibles són els punts grocs i vermells al mapa.

Posi el ratolí al punt desitjat per veure el nom de l'estació.

Feu clic per veure les observacions i els pronòstics meteorològics.

Per canviar el mapa: feu clic els botons verds amb una creu de color negre per apropar; al botó verd amb un guió per allunyar la imatge; o en les fletxes verdes per a mapes adjacents.


METAR-TAF: